createdAt,value
2023-07-27T00:01:03.911Z,46.39
2023-07-27T00:03:31.357Z,46.40
2023-07-27T00:05:58.840Z,46.29
2023-07-27T00:08:26.436Z,46.26
2023-07-27T00:10:54.912Z,46.02
2023-07-27T00:13:22.534Z,46.36
2023-07-27T00:15:49.921Z,46.29
2023-07-27T00:18:17.349Z,46.38
2023-07-27T00:20:44.726Z,46.35
2023-07-27T00:23:12.257Z,46.22
2023-07-27T00:25:40.016Z,46.27
2023-07-27T00:28:07.369Z,46.09
2023-07-27T00:30:34.709Z,46.04
2023-07-27T00:33:02.403Z,46.18
2023-07-27T00:35:29.829Z,46.08
2023-07-27T00:37:57.407Z,46.20
2023-07-27T00:40:25.228Z,46.27
2023-07-27T00:42:52.672Z,46.12
2023-07-27T00:45:20.220Z,46.26
2023-07-27T00:47:47.837Z,46.00
2023-07-27T00:50:15.436Z,46.08
2023-07-27T00:52:43.633Z,46.22
2023-07-27T00:55:11.207Z,46.03
2023-07-27T00:57:38.629Z,46.12
2023-07-27T01:00:08.950Z,46.04
2023-07-27T01:02:36.395Z,46.12
2023-07-27T01:05:04.090Z,46.18
2023-07-27T01:07:31.709Z,46.05
2023-07-27T01:10:00.379Z,45.97
2023-07-27T01:12:39.089Z,46.31
2023-07-27T01:15:11.237Z,46.16
2023-07-27T01:18:28.053Z,46.25
2023-07-27T01:21:18.484Z,46.41
2023-07-27T01:23:48.946Z,46.06
2023-07-27T01:26:22.195Z,46.28
2023-07-27T01:28:59.199Z,46.23
2023-07-27T01:31:32.330Z,46.21
2023-07-27T01:34:04.858Z,46.33
2023-07-27T01:36:41.601Z,45.93
2023-07-27T01:39:12.287Z,46.12
2023-07-27T01:41:43.125Z,46.33
2023-07-27T01:44:12.479Z,46.06
2023-07-27T01:46:41.492Z,46.07
2023-07-27T01:49:11.137Z,46.04
2023-07-27T01:51:40.345Z,46.04
2023-07-27T01:54:09.348Z,46.04
2023-07-27T01:56:38.143Z,45.95
2023-07-27T01:59:08.857Z,46.10
2023-07-27T02:01:38.426Z,46.14
2023-07-27T02:04:07.175Z,46.16
2023-07-27T02:06:36.168Z,46.20
2023-07-27T02:09:04.542Z,46.33
2023-07-27T02:11:33.198Z,46.19
2023-07-27T02:14:10.015Z,45.85
2023-07-27T02:16:45.823Z,46.10
2023-07-27T02:19:16.850Z,46.21
2023-07-27T02:21:46.693Z,46.17
2023-07-27T02:24:15.030Z,46.08
2023-07-27T02:26:45.689Z,46.27
2023-07-27T02:29:13.133Z,46.15
2023-07-27T02:31:40.744Z,46.16
2023-07-27T02:34:08.947Z,46.04
2023-07-27T02:36:36.722Z,46.03
2023-07-27T02:39:04.318Z,45.98
2023-07-27T02:41:31.970Z,45.96
2023-07-27T02:44:00.074Z,46.18
2023-07-27T02:46:29.196Z,46.05
2023-07-27T02:48:56.835Z,46.11
2023-07-27T02:51:24.559Z,45.88
2023-07-27T02:53:56.414Z,46.11
2023-07-27T02:56:28.171Z,45.90
2023-07-27T02:58:55.720Z,46.05
2023-07-27T03:01:24.080Z,46.09
2023-07-27T03:04:00.354Z,46.21
2023-07-27T03:06:28.436Z,46.27
2023-07-27T03:08:59.228Z,46.12
2023-07-27T03:11:26.822Z,46.11
2023-07-27T03:13:54.357Z,46.23
2023-07-27T03:16:21.975Z,46.23
2023-07-27T03:18:49.907Z,46.25
2023-07-27T03:21:19.350Z,46.21
2023-07-27T03:23:51.739Z,46.22
2023-07-27T03:26:20.975Z,46.10
2023-07-27T03:28:48.630Z,46.24
2023-07-27T03:31:17.230Z,45.94
2023-07-27T03:33:44.710Z,46.14
2023-07-27T03:36:12.186Z,46.15
2023-07-27T03:38:39.575Z,46.14
2023-07-27T03:41:06.991Z,46.14
2023-07-27T03:43:35.908Z,46.08
2023-07-27T03:46:03.796Z,46.27
2023-07-27T03:48:31.415Z,46.24
2023-07-27T03:51:03.456Z,46.21
2023-07-27T03:53:31.457Z,46.14
2023-07-27T03:56:02.462Z,46.28
2023-07-27T03:58:30.281Z,46.19
2023-07-27T04:00:58.332Z,46.21
2023-07-27T04:03:26.056Z,46.26
2023-07-27T04:05:55.074Z,46.33
2023-07-27T04:08:22.667Z,46.24
2023-07-27T04:10:51.790Z,46.05
2023-07-27T04:13:20.136Z,45.80
2023-07-27T04:15:47.565Z,45.96
2023-07-27T04:18:15.102Z,46.40
2023-07-27T04:20:42.781Z,46.21
2023-07-27T04:23:10.314Z,46.11
2023-07-27T04:25:37.722Z,46.02
2023-07-27T04:28:05.128Z,45.78
2023-07-27T04:30:32.597Z,45.60
2023-07-27T04:33:00.003Z,45.38
2023-07-27T04:35:27.393Z,44.44
2023-07-27T04:37:55.322Z,43.79
2023-07-27T04:40:22.807Z,43.26
2023-07-27T04:42:50.149Z,42.34
2023-07-27T04:45:17.691Z,42.58
2023-07-27T04:47:45.144Z,42.33
2023-07-27T04:50:12.826Z,42.12
2023-07-27T04:52:40.268Z,42.01
2023-07-27T04:55:10.829Z,41.85
2023-07-27T04:57:38.356Z,41.67
2023-07-27T05:00:06.500Z,41.72
2023-07-27T05:02:34.052Z,41.53
2023-07-27T05:05:01.437Z,41.34
2023-07-27T05:07:29.003Z,41.28
2023-07-27T05:09:56.530Z,41.34
2023-07-27T05:12:23.869Z,41.05
2023-07-27T05:14:52.673Z,41.27
2023-07-27T05:17:20.055Z,41.71
2023-07-27T05:19:47.817Z,41.87
2023-07-27T05:22:15.123Z,41.63
2023-07-27T05:24:42.709Z,41.91
2023-07-27T05:27:10.347Z,42.07
2023-07-27T05:29:37.905Z,42.12
2023-07-27T05:32:05.855Z,42.00
2023-07-27T05:34:35.760Z,41.97
2023-07-27T05:37:03.482Z,42.24
2023-07-27T05:39:31.036Z,42.24
2023-07-27T05:41:58.568Z,41.90
2023-07-27T05:44:26.049Z,42.04
2023-07-27T05:46:56.814Z,42.20
2023-07-27T05:49:24.346Z,42.05
2023-07-27T05:51:51.664Z,42.25
2023-07-27T05:54:19.200Z,42.02
2023-07-27T05:56:46.821Z,42.19
2023-07-27T05:59:14.116Z,42.08
2023-07-27T06:01:41.613Z,42.12
2023-07-27T06:04:09.257Z,42.02
2023-07-27T06:06:37.543Z,42.23
2023-07-27T06:09:05.533Z,42.14
2023-07-27T06:11:32.985Z,42.03
2023-07-27T06:14:00.513Z,42.38
2023-07-27T06:16:28.765Z,42.00
2023-07-27T06:18:56.930Z,42.18
2023-07-27T06:21:24.496Z,41.90
2023-07-27T06:23:51.853Z,42.19
2023-07-27T06:26:19.532Z,42.52
2023-07-27T06:28:46.812Z,42.49
2023-07-27T06:31:16.648Z,43.08
2023-07-27T06:33:45.656Z,42.82
2023-07-27T06:36:15.326Z,42.94
2023-07-27T06:38:42.884Z,42.39
2023-07-27T06:41:10.618Z,42.47
2023-07-27T06:43:38.258Z,42.70
2023-07-27T06:46:09.189Z,42.00
2023-07-27T06:48:37.853Z,41.83
2023-07-27T06:51:05.264Z,42.48
2023-07-27T06:53:32.701Z,42.72
2023-07-27T06:56:00.366Z,43.08
2023-07-27T06:58:27.738Z,43.06
2023-07-27T07:00:56.115Z,43.03
2023-07-27T07:03:24.061Z,42.85
2023-07-27T07:05:51.685Z,43.14
2023-07-27T07:08:19.212Z,43.10
2023-07-27T07:10:46.853Z,43.25
2023-07-27T07:13:14.389Z,43.21
2023-07-27T07:15:41.939Z,43.06
2023-07-27T07:18:09.553Z,43.43
2023-07-27T07:20:39.588Z,43.54
2023-07-27T07:23:07.269Z,43.56
2023-07-27T07:25:34.944Z,43.13
2023-07-27T07:28:02.331Z,42.75
2023-07-27T07:30:29.852Z,43.21
2023-07-27T07:32:57.559Z,43.32
2023-07-27T07:35:24.953Z,43.22
2023-07-27T07:37:52.459Z,42.87
2023-07-27T07:40:21.585Z,43.10
2023-07-27T07:42:49.097Z,42.65
2023-07-27T07:45:16.512Z,42.37
2023-07-27T07:47:43.984Z,43.00
2023-07-27T07:50:11.641Z,43.24
2023-07-27T07:52:39.319Z,42.87
2023-07-27T07:55:08.213Z,43.13
2023-07-27T07:57:35.907Z,43.28
2023-07-27T08:00:05.432Z,42.46
2023-07-27T08:02:42.500Z,42.77
2023-07-27T08:05:10.299Z,43.02
2023-07-27T08:07:37.693Z,43.25
2023-07-27T08:10:08.574Z,43.56
2023-07-27T08:12:38.509Z,43.37
2023-07-27T08:15:07.101Z,43.86
2023-07-27T08:17:35.791Z,44.15
2023-07-27T08:20:04.801Z,44.60
2023-07-27T08:22:32.407Z,44.46
2023-07-27T08:25:14.687Z,44.83
2023-07-27T08:27:47.612Z,44.05
2023-07-27T08:30:15.748Z,44.67
2023-07-27T08:32:43.442Z,44.72
2023-07-27T08:35:11.145Z,44.03
2023-07-27T08:37:38.689Z,43.43
2023-07-27T08:40:10.390Z,44.20
2023-07-27T08:42:38.857Z,44.16
2023-07-27T08:45:09.484Z,44.02
2023-07-27T08:47:37.870Z,44.64
2023-07-27T08:50:06.016Z,44.03
2023-07-27T08:52:33.552Z,44.22
2023-07-27T08:55:01.255Z,44.24
2023-07-27T08:57:30.121Z,44.19
2023-07-27T08:59:58.323Z,43.17
2023-07-27T09:02:25.975Z,43.82
2023-07-27T09:04:53.537Z,43.30
2023-07-27T09:07:27.395Z,42.88
2023-07-27T09:09:57.286Z,43.12
2023-07-27T09:12:28.102Z,43.58
2023-07-27T09:14:56.080Z,43.17
2023-07-27T09:17:26.839Z,42.72
2023-07-27T09:19:56.560Z,43.52
2023-07-27T09:22:28.687Z,43.16
2023-07-27T09:24:59.262Z,42.96
2023-07-27T09:27:26.994Z,43.09
2023-07-27T09:30:00.872Z,42.98
2023-07-27T09:32:36.807Z,43.18
2023-07-27T09:35:05.772Z,43.23
2023-07-27T09:37:36.789Z,43.50
2023-07-27T09:40:19.387Z,43.32
2023-07-27T09:42:47.675Z,42.78
2023-07-27T09:45:15.469Z,42.92
2023-07-27T09:47:43.690Z,42.95
2023-07-27T09:50:11.440Z,42.51
2023-07-27T09:52:40.775Z,43.51
2023-07-27T09:55:08.881Z,44.18
2023-07-27T09:57:36.583Z,44.26
2023-07-27T10:00:08.050Z,43.31
2023-07-27T10:02:42.556Z,43.00
2023-07-27T10:05:12.679Z,43.82
2023-07-27T10:07:53.802Z,42.39
2023-07-27T10:10:40.076Z,42.58
2023-07-27T10:13:12.504Z,42.41
2023-07-27T10:15:44.570Z,42.43
2023-07-27T10:18:15.928Z,42.77
2023-07-27T10:20:43.803Z,42.66
2023-07-27T10:23:29.701Z,42.58
2023-07-27T10:25:57.476Z,45.01
2023-07-27T10:28:34.502Z,43.67
2023-07-27T10:31:22.188Z,43.93
2023-07-27T10:34:24.954Z,44.02
2023-07-27T10:37:00.534Z,44.56
2023-07-27T10:39:49.158Z,45.70
2023-07-27T10:42:20.417Z,46.36
2023-07-27T10:44:50.482Z,46.83
2023-07-27T10:47:25.174Z,44.61
2023-07-27T10:49:57.918Z,43.90
2023-07-27T10:52:31.377Z,43.94
2023-07-27T10:55:04.421Z,44.90
2023-07-27T10:57:33.960Z,45.03
2023-07-27T11:00:03.094Z,44.50
2023-07-27T11:02:33.487Z,44.14
2023-07-27T11:05:04.036Z,44.44
2023-07-27T11:07:33.733Z,43.88
2023-07-27T11:10:12.669Z,44.38
2023-07-27T11:12:58.693Z,44.99
2023-07-27T11:15:30.838Z,46.39
2023-07-27T11:18:03.201Z,47.21
2023-07-27T11:20:33.408Z,45.52
2023-07-27T11:23:02.173Z,45.66
2023-07-27T11:25:36.517Z,46.80
2023-07-27T11:28:05.767Z,46.54
2023-07-27T11:30:37.547Z,45.75
2023-07-27T11:33:06.910Z,45.81
2023-07-27T11:35:44.761Z,44.88
2023-07-27T11:38:13.440Z,44.55
2023-07-27T11:40:49.520Z,45.65
2023-07-27T11:43:17.270Z,45.77
2023-07-27T11:45:46.263Z,46.01
2023-07-27T11:48:14.134Z,45.77
2023-07-27T11:50:44.254Z,45.94
2023-07-27T11:53:17.407Z,45.66
2023-07-27T11:55:50.694Z,46.19
2023-07-27T11:58:18.453Z,46.54
2023-07-27T12:00:53.802Z,46.22
2023-07-27T12:03:24.316Z,46.93
2023-07-27T12:05:56.216Z,46.35
2023-07-27T12:13:58.949Z,46.94
2023-07-27T12:16:19.281Z,46.95
2023-07-27T12:18:50.962Z,46.85
2023-07-27T12:24:24.786Z,47.69
2023-07-27T12:27:16.638Z,47.48
2023-07-27T12:34:25.919Z,47.76
2023-07-27T12:39:23.987Z,48.22
2023-07-27T12:44:22.002Z,48.83
2023-07-27T12:46:49.366Z,49.26
2023-07-27T12:49:16.979Z,49.02
2023-07-27T12:51:44.563Z,49.53
2023-07-27T12:54:12.041Z,49.34
2023-07-27T12:56:39.573Z,49.55
2023-07-27T12:59:07.081Z,50.19
2023-07-27T13:01:35.083Z,50.39
2023-07-27T13:04:04.292Z,50.49
2023-07-27T13:06:34.487Z,50.75
2023-07-27T13:09:03.706Z,50.85
2023-07-27T13:11:31.507Z,51.60
2023-07-27T13:13:59.733Z,51.61
2023-07-27T13:16:27.160Z,51.74
2023-07-27T13:18:54.735Z,51.86
2023-07-27T13:21:22.241Z,51.76
2023-07-27T13:23:49.735Z,51.80
2023-07-27T13:26:17.231Z,52.18
2023-07-27T13:28:45.119Z,52.11
2023-07-27T13:31:13.382Z,51.89
2023-07-27T13:33:41.130Z,52.51
2023-07-27T13:36:09.691Z,52.58
2023-07-27T13:38:37.279Z,52.98
2023-07-27T13:41:05.309Z,52.83
2023-07-27T13:43:34.088Z,52.75
2023-07-27T13:46:01.659Z,52.86
2023-07-27T13:48:29.849Z,52.91
2023-07-27T13:50:57.290Z,51.94
2023-07-27T13:53:24.946Z,52.20
2023-07-27T13:55:54.094Z,52.77
2023-07-27T13:58:21.698Z,52.07
2023-07-27T14:00:50.920Z,52.62
2023-07-27T14:03:18.403Z,52.38
2023-07-27T14:05:45.914Z,52.53
2023-07-27T14:08:13.449Z,52.29
2023-07-27T14:10:40.939Z,52.34
2023-07-27T14:13:08.705Z,52.72
2023-07-27T14:15:38.243Z,52.53
2023-07-27T14:18:05.808Z,52.59
2023-07-27T14:20:35.464Z,52.38
2023-07-27T14:23:02.779Z,52.37
2023-07-27T14:25:30.325Z,52.46
2023-07-27T14:27:59.502Z,52.86
2023-07-27T14:30:27.566Z,53.50
2023-07-27T14:32:54.904Z,52.93
2023-07-27T14:35:25.021Z,52.94
2023-07-27T14:37:53.503Z,53.17
2023-07-27T14:42:54.252Z,53.55
2023-07-27T14:45:21.626Z,53.16
2023-07-27T14:47:51.385Z,52.98
2023-07-27T14:50:19.146Z,53.18
2023-07-27T14:52:46.626Z,53.31
2023-07-27T14:55:18.078Z,53.12
2023-07-27T14:57:46.154Z,53.58
2023-07-27T15:00:23.857Z,53.30
2023-07-27T15:02:52.138Z,53.20
2023-07-27T15:05:25.352Z,53.22
2023-07-27T15:07:55.014Z,53.84
2023-07-27T15:10:31.338Z,53.38
2023-07-27T15:13:00.770Z,53.72
2023-07-27T15:15:29.235Z,53.68
2023-07-27T15:17:57.053Z,53.63
2023-07-27T15:20:24.676Z,53.21
2023-07-27T15:27:18.504Z,50.80
2023-07-27T15:29:56.466Z,49.78
2023-07-27T15:32:24.173Z,50.42
2023-07-27T15:34:52.044Z,49.59
2023-07-27T15:37:19.893Z,49.02
2023-07-27T15:39:47.798Z,49.19
2023-07-27T15:42:15.715Z,49.50
2023-07-27T15:44:44.768Z,50.14
2023-07-27T15:47:12.296Z,49.79
2023-07-27T15:49:40.252Z,49.91
2023-07-27T15:52:08.033Z,50.84
2023-07-27T15:54:35.970Z,51.08
2023-07-27T15:57:04.093Z,51.83
2023-07-27T15:59:32.170Z,52.33
2023-07-27T16:01:59.887Z,52.73
2023-07-27T16:04:27.919Z,52.33
2023-07-27T16:06:55.789Z,52.36
2023-07-27T16:09:24.505Z,52.84
2023-07-27T16:11:52.588Z,53.29
2023-07-27T16:14:20.436Z,52.93
2023-07-27T16:16:55.330Z,52.58
2023-07-27T16:19:25.996Z,52.75
2023-07-27T16:21:53.725Z,51.03
2023-07-27T16:24:21.214Z,51.64
2023-07-27T16:26:48.922Z,51.33
2023-07-27T16:29:19.274Z,51.33
2023-07-27T16:31:49.237Z,51.34
2023-07-27T16:34:16.746Z,50.99
2023-07-27T16:36:44.700Z,52.25
2023-07-27T16:39:14.898Z,51.85
2023-07-27T16:41:42.534Z,52.23
2023-07-27T16:44:12.906Z,52.30
2023-07-27T16:46:40.518Z,52.85
2023-07-27T16:49:08.187Z,52.29
2023-07-27T16:51:38.395Z,52.57
2023-07-27T16:54:05.862Z,52.75
2023-07-27T16:56:33.760Z,53.26
2023-07-27T16:59:04.507Z,53.30
2023-07-27T17:01:32.232Z,53.78
2023-07-27T17:03:59.901Z,53.41
2023-07-27T17:06:27.828Z,52.73
2023-07-27T17:08:55.771Z,51.55
2023-07-27T17:11:23.417Z,51.45
2023-07-27T17:13:56.999Z,52.72
2023-07-27T17:16:26.056Z,53.72
2023-07-27T17:18:57.795Z,53.16
2023-07-27T17:21:25.498Z,53.27
2023-07-27T17:23:56.782Z,53.25
2023-07-27T17:26:24.800Z,52.90
2023-07-27T17:28:55.343Z,51.61
2023-07-27T17:31:23.168Z,51.50
2023-07-27T17:33:50.840Z,52.32
2023-07-27T17:36:18.518Z,51.50
2023-07-27T17:38:46.051Z,51.56
2023-07-27T17:41:13.584Z,51.49
2023-07-27T17:43:41.128Z,51.29
2023-07-27T17:46:09.085Z,50.73
2023-07-27T17:48:40.627Z,50.34
2023-07-27T17:51:08.446Z,51.16
2023-07-27T17:53:38.341Z,51.32
2023-07-27T17:56:07.356Z,51.00
2023-07-27T17:58:35.215Z,50.49
2023-07-27T18:01:03.107Z,50.79
2023-07-27T18:03:31.213Z,50.41
2023-07-27T18:06:09.625Z,50.36
2023-07-27T18:08:37.993Z,50.89
2023-07-27T18:11:13.865Z,50.77
2023-07-27T18:13:43.228Z,50.31
2023-07-27T18:16:12.825Z,50.62
2023-07-27T18:18:41.171Z,50.84
2023-07-27T18:21:18.208Z,50.97
2023-07-27T18:23:47.945Z,50.65
2023-07-27T18:26:17.910Z,49.73
2023-07-27T18:28:54.319Z,49.66
2023-07-27T18:31:22.041Z,49.44
2023-07-27T18:33:51.809Z,49.14
2023-07-27T18:36:19.728Z,49.43
2023-07-27T18:38:48.401Z,49.54
2023-07-27T18:41:18.185Z,50.01
2023-07-27T18:43:52.943Z,49.94
2023-07-27T18:46:23.679Z,50.10
2023-07-27T18:48:52.387Z,50.39
2023-07-27T18:51:20.389Z,50.66
2023-07-27T18:53:47.948Z,50.89
2023-07-27T18:56:16.208Z,51.60
2023-07-27T18:58:44.196Z,51.80
2023-07-27T19:01:11.598Z,52.73
2023-07-27T19:03:40.431Z,53.11
2023-07-27T19:06:08.205Z,54.73
2023-07-27T19:08:35.813Z,54.56
2023-07-27T19:11:05.057Z,55.78
2023-07-27T19:13:33.332Z,56.31
2023-07-27T19:16:05.990Z,56.44
2023-07-27T19:18:37.812Z,55.79
2023-07-27T19:21:09.035Z,56.88
2023-07-27T19:23:37.482Z,57.30
2023-07-27T19:26:06.578Z,57.43
2023-07-27T19:28:34.363Z,57.38
2023-07-27T19:31:02.036Z,57.85
2023-07-27T19:33:29.730Z,57.50
2023-07-27T19:35:57.405Z,56.37
2023-07-27T19:38:25.009Z,58.24
2023-07-27T19:40:52.780Z,58.88
2023-07-27T19:43:22.115Z,59.33
2023-07-27T19:45:51.611Z,59.18
2023-07-27T19:48:20.075Z,59.31
2023-07-27T19:50:53.329Z,59.63
2023-07-27T19:53:21.157Z,59.69
2023-07-27T19:55:49.730Z,59.93
2023-07-27T19:58:17.603Z,59.87
2023-07-27T20:00:45.234Z,59.79
2023-07-27T20:03:13.667Z,59.94
2023-07-27T20:05:41.358Z,59.88
2023-07-27T20:08:08.866Z,59.84
2023-07-27T20:10:36.429Z,59.93
2023-07-27T20:13:03.803Z,60.25
2023-07-27T20:15:31.369Z,60.16
2023-07-27T20:17:58.916Z,60.31
2023-07-27T20:20:26.399Z,60.29
2023-07-27T20:22:53.968Z,60.80
2023-07-27T20:25:21.515Z,60.68
2023-07-27T20:27:49.111Z,60.72
2023-07-27T20:30:16.710Z,60.78
2023-07-27T20:32:44.504Z,60.88
2023-07-27T20:35:12.089Z,60.99
2023-07-27T20:37:42.608Z,59.87
2023-07-27T20:40:10.905Z,59.28
2023-07-27T20:42:38.468Z,60.73
2023-07-27T20:45:07.923Z,61.36
2023-07-27T20:47:35.854Z,61.76
2023-07-27T20:50:04.438Z,61.42
2023-07-27T20:52:32.002Z,61.77
2023-07-27T20:54:59.919Z,61.99
2023-07-27T20:57:27.431Z,62.21
2023-07-27T20:59:57.459Z,62.06
2023-07-27T21:02:25.135Z,62.16
2023-07-27T21:04:53.247Z,62.47
2023-07-27T21:07:20.751Z,62.46
2023-07-27T21:09:48.778Z,62.41
2023-07-27T21:12:20.239Z,62.53
2023-07-27T21:14:47.771Z,62.37
2023-07-27T21:17:15.050Z,62.58
2023-07-27T21:19:42.599Z,62.75
2023-07-27T21:22:10.131Z,62.68
2023-07-27T21:24:37.719Z,62.86
2023-07-27T21:27:07.985Z,62.94
2023-07-27T21:29:35.496Z,63.02
2023-07-27T21:32:03.327Z,63.07
2023-07-27T21:34:31.098Z,63.01
2023-07-27T21:36:58.713Z,62.87
2023-07-27T21:39:26.427Z,62.82
2023-07-27T21:42:00.064Z,63.04
2023-07-27T21:44:28.293Z,62.91
2023-07-27T21:46:58.174Z,62.96
2023-07-27T21:49:25.626Z,62.75
2023-07-27T21:51:54.733Z,63.02
2023-07-27T21:54:22.289Z,63.36
2023-07-27T21:56:50.339Z,63.11
2023-07-27T21:59:17.777Z,63.31
2023-07-27T22:01:45.527Z,63.25
2023-07-27T22:04:13.153Z,63.38
2023-07-27T22:06:40.677Z,63.34
2023-07-27T22:09:09.484Z,63.41
2023-07-27T22:11:37.003Z,63.39
2023-07-27T22:14:04.762Z,63.42
2023-07-27T22:16:34.841Z,63.30
2023-07-27T22:19:02.630Z,63.69
2023-07-27T22:21:30.261Z,63.66
2023-07-27T22:23:57.877Z,63.52
2023-07-27T22:26:25.457Z,63.40
2023-07-27T22:28:52.896Z,63.51
2023-07-27T22:31:20.428Z,63.42
2023-07-27T22:33:47.976Z,63.52
2023-07-27T22:36:17.795Z,63.56
2023-07-27T22:38:45.668Z,63.52
2023-07-27T22:41:15.746Z,63.55
2023-07-27T22:43:43.412Z,63.42
2023-07-27T22:46:11.091Z,63.52
2023-07-27T22:48:40.987Z,63.67
2023-07-27T22:51:08.457Z,63.71
2023-07-27T22:53:36.270Z,63.71
2023-07-27T22:56:04.042Z,63.46
2023-07-27T22:58:31.552Z,63.42
2023-07-27T23:01:10.610Z,63.58
2023-07-27T23:03:40.757Z,63.57
2023-07-27T23:06:08.872Z,63.52
2023-07-27T23:08:36.510Z,63.62
2023-07-27T23:11:04.037Z,63.54
2023-07-27T23:13:32.275Z,63.41
2023-07-27T23:16:01.112Z,63.30
2023-07-27T23:18:31.391Z,63.33
2023-07-27T23:20:58.862Z,63.33
2023-07-27T23:23:26.481Z,63.33
2023-07-27T23:25:54.067Z,63.24
2023-07-27T23:28:21.397Z,63.13
2023-07-27T23:30:49.041Z,62.99
2023-07-27T23:33:16.434Z,62.81
2023-07-27T23:35:46.267Z,62.85
2023-07-27T23:38:13.760Z,62.69
2023-07-27T23:40:42.311Z,62.31
2023-07-27T23:43:09.872Z,62.26
2023-07-27T23:45:37.484Z,62.34
2023-07-27T23:48:05.501Z,62.26
2023-07-27T23:50:33.017Z,62.16
2023-07-27T23:53:00.689Z,62.28
2023-07-27T23:55:28.087Z,62.19
2023-07-27T23:57:55.682Z,62.00
